AO2

Tweets about a recent trend: AO2

KOSH 271153Z 20005KT 10SM CLR M07/M09 A3007 RMK AO2 SLP198 T10671089 11011 21083 51006
KORD 271151Z 19004KT 10SM SCT090 M02/M05 A3012 RMK AO2 SLP204 T10171050 10033 21028 51008
KATL 271152Z 08007KT 10SM BKN150 08/M02 A3026 RMK AO2 SLP248 T00831022 10100 20083 53018
KJFK 271151Z 23009KT 10SM FEW120 FEW250 01/M03 A3039 RMK AO2 SLP291 T00111033 10022 20000 50015
KONT 271153Z 05003KT 10SM BKN046 OVC055 08/06 A2991 RMK AO2 SLP128 70012 T00830056 10089 20067 56021
KSFO 271156Z 28003KT 10SM FEW015 BKN048 BKN080 08/04 A2991 RMK AO2 RAE46 SLP129 P0002 60006 70007 T00830039 10089 20078 58005..
KJFK 271151Z 23009KT 10SM FEW120 FEW250 01/M03 A3039 RMK AO2 SLP291 T00111033 10022 20000 50015
KLAX 271153Z 07006KT 10SM SCT040 BKN055 10/07 A2990 RMK AO2 SLP124 70007 T01000067 10117 20089 58021
#KLOT 271135Z AUTO 00000KT 10SM SCT080 OVC090 00/M01 A3013 RMK AO2 T10051012
#PHNL 271053Z 03004KT 10SM FEW027 22/16 A3003 RMK AO2 SLP167 T02170161 $
#KLOT 271055Z AUTO 16006KT 10SM OVC090 00/M01 A3012 RMK AO2 T10011010
#PANC 271113Z 02003KT 3/4SM R07R/2800V5000FT FZFG VV002 M04/M05 A3009 RMK AO2 T10441050
#KLAF 271054Z AUTO 05003KT 10SM BKN035 OVC095 M01/M03 A3016 RMK AO2 SLP218 T10111033
#KMDW 271053Z 20004KT 10SM BKN090 01/M04 A3012 RMK AO2 SLP206 T00111039 $
#KSTL 271051Z 11004KT 9SM BKN070 04/02 A3010 RMK AO2 SLP198 T00440017
#KDFW 271053Z 00000KT 10SM OVC008 17/15 A2990 RMK AO2 SLP121 T01670150
#KATL 271052Z 08006KT 10SM BKN150 08/M02 A3024 RMK AO2 SLP240 T00831022
#KPBI 271053Z 10014KT 10SM FEW022 FEW028 SCT038 23/18 A3018 RMK AO2 SLP219 T02330183
#KMIA 271053Z 11010KT 10SM FEW023 FEW040 SCT060 24/18 A3016 RMK AO2 SLP213 T02390183
#KLAX 271053Z 08005KT 10SM BKN043 BKN060 09/07 A2993 RMK AO2 SLP133 T00890067
#KORD 271051Z 00000KT 10SM SCT090 M02/M05 A3011 RMK AO2 SLP202 T10171050
#KJFK 271051Z 24013KT 10SM CLR 02/M04 A3040 RMK AO2 SLP294 T00221039
#KSFO 271056Z 00000KT 9SM -RA FEW015 SCT037 OVC047 08/06 A2992 RMK AO2 SLP132 P0000 T00830056
RT @klaxmetar: KLAX 271053Z 08005KT 10SM BKN043 BKN060 09/07 A2993 RMK AO2 SLP133 T00890067
KOSH 271053Z AUTO 19005KT 10SM CLR M06/M08 A3007 RMK AO2 SLP196 T10561078